Miller, Nebraska
Current Conditions -  °F | °C
As of 5:15 PM on Sunday 21 Dec 2014 (Local Time) from KLXN Reporting Station
Haze Haze  
Wind Chill: 31°   Ceiling: 8500
Heat Index: 38°   Visibility: 5mi
Dew Point: 36°   Wind: 12mph
Humidity: 91%   Direction: 180°S
Pressure: 29.54"   Gusts: NA
Location:  40.93°N, 99.39°W
Report Text: KLXN 212315Z AUTO 18010KT 5SM BR SCT070 OVC085 04/02 A2954 RMK AO2 T00350021
Loading
Personal Weather Stations






























Interactive Weather Map New forecast layout! Learn more

10-Day Weather Forecast

Advertisements
Track Severe Weather on mobile